sensor_id;sensor_type;location;lat;lon;timestamp;P1;durP1;ratioP1;P2;durP2;ratioP2
78989;SDS011;68390;52.130;21.218;2023-08-12T00:02:12;12.48;;;7.97;;
78989;SDS011;68390;52.130;21.218;2023-08-12T00:04:37;12.85;;;8.13;;
78989;SDS011;68390;52.130;21.218;2023-08-12T00:07:04;13.73;;;7.18;;
78989;SDS011;68390;52.130;21.218;2023-08-12T00:09:29;12.75;;;6.82;;
78989;SDS011;68390;52.130;21.218;2023-08-12T00:11:54;13.75;;;7.00;;
78989;SDS011;68390;52.130;21.218;2023-08-12T00:14:20;13.95;;;7.10;;
78989;SDS011;68390;52.130;21.218;2023-08-12T00:16:45;9.98;;;6.65;;
78989;SDS011;68390;52.130;21.218;2023-08-12T00:19:11;11.77;;;6.93;;
78989;SDS011;68390;52.130;21.218;2023-08-12T00:21:36;16.83;;;7.88;;
78989;SDS011;68390;52.130;21.218;2023-08-12T00:24:02;10.45;;;6.65;;
78989;SDS011;68390;52.130;21.218;2023-08-12T00:26:27;14.30;;;8.00;;
78989;SDS011;68390;52.130;21.218;2023-08-12T00:28:53;10.00;;;6.57;;
78989;SDS011;68390;52.130;21.218;2023-08-12T00:31:18;9.90;;;5.95;;
78989;SDS011;68390;52.130;21.218;2023-08-12T00:33:44;11.13;;;6.85;;
78989;SDS011;68390;52.130;21.218;2023-08-12T00:36:09;16.38;;;7.50;;
78989;SDS011;68390;52.130;21.218;2023-08-12T00:38:35;14.63;;;6.93;;
78989;SDS011;68390;52.130;21.218;2023-08-12T00:41:00;12.48;;;8.00;;
78989;SDS011;68390;52.130;21.218;2023-08-12T00:43:25;12.95;;;8.43;;
78989;SDS011;68390;52.130;21.218;2023-08-12T00:45:51;13.05;;;7.90;;
78989;SDS011;68390;52.130;21.218;2023-08-12T00:48:17;12.27;;;7.22;;
78989;SDS011;68390;52.130;21.218;2023-08-12T00:50:43;9.75;;;6.65;;
78989;SDS011;68390;52.130;21.218;2023-08-12T00:53:10;10.63;;;7.00;;
78989;SDS011;68390;52.130;21.218;2023-08-12T00:55:37;13.07;;;6.88;;
78989;SDS011;68390;52.130;21.218;2023-08-12T00:58:03;11.68;;;7.25;;
78989;SDS011;68390;52.130;21.218;2023-08-12T01:00:28;11.07;;;7.32;;
78989;SDS011;68390;52.130;21.218;2023-08-12T01:02:54;10.30;;;6.80;;
78989;SDS011;68390;52.130;21.218;2023-08-12T01:05:21;10.45;;;6.60;;
78989;SDS011;68390;52.130;21.218;2023-08-12T01:07:47;9.43;;;6.75;;
78989;SDS011;68390;52.130;21.218;2023-08-12T01:10:13;12.45;;;6.35;;
78989;SDS011;68390;52.130;21.218;2023-08-12T01:12:52;9.43;;;6.07;;
78989;SDS011;68390;52.130;21.218;2023-08-12T01:15:21;12.20;;;7.47;;
78989;SDS011;68390;52.130;21.218;2023-08-12T01:17:49;9.90;;;7.00;;
78989;SDS011;68390;52.130;21.218;2023-08-12T01:20:17;11.65;;;7.10;;
78989;SDS011;68390;52.130;21.218;2023-08-12T01:23:33;9.02;;;7.22;;
78989;SDS011;68390;52.130;21.218;2023-08-12T01:25:42;9.48;;;7.03;;
78989;SDS011;68390;52.130;21.218;2023-08-12T01:28:08;10.25;;;7.57;;
78989;SDS011;68390;52.130;21.218;2023-08-12T01:30:34;11.30;;;7.40;;
78989;SDS011;68390;52.130;21.218;2023-08-12T01:33:21;11.48;;;6.95;;
78989;SDS011;68390;52.130;21.218;2023-08-12T01:35:59;11.18;;;7.15;;
78989;SDS011;68390;52.130;21.218;2023-08-12T01:38:33;11.95;;;6.88;;
78989;SDS011;68390;52.130;21.218;2023-08-12T01:41:02;9.93;;;6.30;;
78989;SDS011;68390;52.130;21.218;2023-08-12T01:43:28;8.85;;;6.88;;
78989;SDS011;68390;52.130;21.218;2023-08-12T01:45:54;11.35;;;7.68;;
78989;SDS011;68390;52.130;21.218;2023-08-12T01:48:20;12.07;;;7.68;;
78989;SDS011;68390;52.130;21.218;2023-08-12T01:50:48;7.82;;;6.32;;
78989;SDS011;68390;52.130;21.218;2023-08-12T01:53:13;10.40;;;6.97;;
78989;SDS011;68390;52.130;21.218;2023-08-12T01:55:42;11.43;;;7.15;;
78989;SDS011;68390;52.130;21.218;2023-08-12T01:58:09;10.30;;;7.63;;
78989;SDS011;68390;52.130;21.218;2023-08-12T02:00:34;13.02;;;6.88;;
78989;SDS011;68390;52.130;21.218;2023-08-12T02:03:00;10.05;;;8.15;;
78989;SDS011;68390;52.130;21.218;2023-08-12T02:05:25;14.55;;;8.30;;
78989;SDS011;68390;52.130;21.218;2023-08-12T02:07:51;13.30;;;7.72;;
78989;SDS011;68390;52.130;21.218;2023-08-12T02:10:16;11.35;;;7.70;;
78989;SDS011;68390;52.130;21.218;2023-08-12T02:12:41;13.88;;;7.30;;
78989;SDS011;68390;52.130;21.218;2023-08-12T02:15:07;11.25;;;7.10;;
78989;SDS011;68390;52.130;21.218;2023-08-12T02:17:33;13.45;;;7.68;;
78989;SDS011;68390;52.130;21.218;2023-08-12T02:20:00;10.68;;;7.15;;
78989;SDS011;68390;52.130;21.218;2023-08-12T02:22:25;12.57;;;7.53;;
78989;SDS011;68390;52.130;21.218;2023-08-12T02:24:51;12.32;;;6.63;;
78989;SDS011;68390;52.130;21.218;2023-08-12T02:27:16;12.95;;;8.18;;
78989;SDS011;68390;52.130;21.218;2023-08-12T02:29:41;12.25;;;8.15;;
78989;SDS011;68390;52.130;21.218;2023-08-12T02:32:07;12.27;;;7.57;;
78989;SDS011;68390;52.130;21.218;2023-08-12T02:34:32;10.65;;;7.72;;
78989;SDS011;68390;52.130;21.218;2023-08-12T02:36:58;13.43;;;8.77;;
78989;SDS011;68390;52.130;21.218;2023-08-12T02:39:23;11.10;;;7.35;;
78989;SDS011;68390;52.130;21.218;2023-08-12T02:41:49;11.77;;;6.43;;
78989;SDS011;68390;52.130;21.218;2023-08-12T02:44:14;13.60;;;8.18;;
78989;SDS011;68390;52.130;21.218;2023-08-12T02:46:39;9.95;;;6.85;;
78989;SDS011;68390;52.130;21.218;2023-08-12T02:49:05;10.77;;;7.40;;
78989;SDS011;68390;52.130;21.218;2023-08-12T02:51:30;7.82;;;7.00;;
78989;SDS011;68390;52.130;21.218;2023-08-12T02:53:56;8.68;;;6.95;;
78989;SDS011;68390;52.130;21.218;2023-08-12T02:56:21;12.85;;;7.35;;
78989;SDS011;68390;52.130;21.218;2023-08-12T02:58:46;10.73;;;7.10;;
78989;SDS011;68390;52.130;21.218;2023-08-12T03:01:12;11.80;;;6.90;;
78989;SDS011;68390;52.130;21.218;2023-08-12T03:03:38;11.40;;;7.40;;
78989;SDS011;68390;52.130;21.218;2023-08-12T03:06:03;10.73;;;7.43;;
78989;SDS011;68390;52.130;21.218;2023-08-12T03:08:29;11.52;;;7.97;;
78989;SDS011;68390;52.130;21.218;2023-08-12T03:10:57;15.65;;;7.35;;
78989;SDS011;68390;52.130;21.218;2023-08-12T03:13:24;8.65;;;6.57;;
78989;SDS011;68390;52.130;21.218;2023-08-12T03:15:50;8.35;;;6.05;;
78989;SDS011;68390;52.130;21.218;2023-08-12T03:18:15;12.13;;;7.82;;
78989;SDS011;68390;52.130;21.218;2023-08-12T03:20:40;9.02;;;6.30;;
78989;SDS011;68390;52.130;21.218;2023-08-12T03:23:06;10.55;;;7.43;;
78989;SDS011;68390;52.130;21.218;2023-08-12T03:25:31;9.88;;;7.05;;
78989;SDS011;68390;52.130;21.218;2023-08-12T03:27:57;9.88;;;6.80;;
78989;SDS011;68390;52.130;21.218;2023-08-12T03:30:22;6.93;;;5.45;;
78989;SDS011;68390;52.130;21.218;2023-08-12T03:32:47;10.00;;;5.90;;
78989;SDS011;68390;52.130;21.218;2023-08-12T03:35:13;10.23;;;7.00;;
78989;SDS011;68390;52.130;21.218;2023-08-12T03:37:38;9.73;;;7.10;;
78989;SDS011;68390;52.130;21.218;2023-08-12T03:40:04;12.52;;;7.32;;
78989;SDS011;68390;52.130;21.218;2023-08-12T03:42:30;9.90;;;7.15;;
78989;SDS011;68390;52.130;21.218;2023-08-12T03:44:55;20.42;;;9.48;;
78989;SDS011;68390;52.130;21.218;2023-08-12T03:47:21;21.30;;;9.68;;
78989;SDS011;68390;52.130;21.218;2023-08-12T03:49:48;37.22;;;9.88;;
78989;SDS011;68390;52.130;21.218;2023-08-12T03:52:14;14.98;;;8.93;;
78989;SDS011;68390;52.130;21.218;2023-08-12T03:54:39;12.10;;;7.20;;
78989;SDS011;68390;52.130;21.218;2023-08-12T03:57:04;20.85;;;9.60;;
78989;SDS011;68390;52.130;21.218;2023-08-12T03:59:30;18.75;;;9.13;;
78989;SDS011;68390;52.130;21.218;2023-08-12T04:01:56;13.93;;;7.28;;
78989;SDS011;68390;52.130;21.218;2023-08-12T04:04:22;11.43;;;7.75;;
78989;SDS011;68390;52.130;21.218;2023-08-12T04:06:48;9.45;;;7.15;;
78989;SDS011;68390;52.130;21.218;2023-08-12T04:09:16;13.45;;;7.93;;
78989;SDS011;68390;52.130;21.218;2023-08-12T04:11:42;11.00;;;8.38;;
78989;SDS011;68390;52.130;21.218;2023-08-12T04:14:08;12.55;;;7.68;;
78989;SDS011;68390;52.130;21.218;2023-08-12T04:16:33;12.55;;;7.70;;
78989;SDS011;68390;52.130;21.218;2023-08-12T04:18:59;10.82;;;6.45;;
78989;SDS011;68390;52.130;21.218;2023-08-12T04:21:24;14.05;;;8.55;;
78989;SDS011;68390;52.130;21.218;2023-08-12T04:23:50;11.55;;;8.77;;
78989;SDS011;68390;52.130;21.218;2023-08-12T04:26:15;12.60;;;8.40;;
78989;SDS011;68390;52.130;21.218;2023-08-12T04:28:40;13.00;;;8.80;;
78989;SDS011;68390;52.130;21.218;2023-08-12T04:31:07;12.82;;;8.02;;
78989;SDS011;68390;52.130;21.218;2023-08-12T04:33:33;15.73;;;8.20;;
78989;SDS011;68390;52.130;21.218;2023-08-12T04:35:59;15.40;;;8.35;;
78989;SDS011;68390;52.130;21.218;2023-08-12T04:38:24;11.75;;;8.60;;
78989;SDS011;68390;52.130;21.218;2023-08-12T04:40:52;14.55;;;8.35;;
78989;SDS011;68390;52.130;21.218;2023-08-12T04:43:18;11.70;;;7.55;;
78989;SDS011;68390;52.130;21.218;2023-08-12T04:45:45;12.10;;;8.13;;
78989;SDS011;68390;52.130;21.218;2023-08-12T04:48:11;11.77;;;7.22;;
78989;SDS011;68390;52.130;21.218;2023-08-12T04:50:37;12.85;;;8.00;;
78989;SDS011;68390;52.130;21.218;2023-08-12T04:53:03;10.00;;;7.05;;
78989;SDS011;68390;52.130;21.218;2023-08-12T04:55:29;10.45;;;7.05;;
78989;SDS011;68390;52.130;21.218;2023-08-12T04:57:55;13.43;;;7.15;;
78989;SDS011;68390;52.130;21.218;2023-08-12T05:00:21;12.80;;;7.00;;
78989;SDS011;68390;52.130;21.218;2023-08-12T05:02:47;12.80;;;7.43;;
78989;SDS011;68390;52.130;21.218;2023-08-12T05:05:13;10.50;;;7.45;;
78989;SDS011;68390;52.130;21.218;2023-08-12T05:07:38;8.10;;;6.70;;
78989;SDS011;68390;52.130;21.218;2023-08-12T05:10:04;13.95;;;7.30;;
78989;SDS011;68390;52.130;21.218;2023-08-12T05:12:30;10.68;;;7.18;;
78989;SDS011;68390;52.130;21.218;2023-08-12T05:14:55;8.60;;;6.97;;
78989;SDS011;68390;52.130;21.218;2023-08-12T05:17:21;8.88;;;5.47;;
78989;SDS011;68390;52.130;21.218;2023-08-12T05:19:46;8.02;;;4.85;;
78989;SDS011;68390;52.130;21.218;2023-08-12T05:22:12;7.72;;;5.55;;
78989;SDS011;68390;52.130;21.218;2023-08-12T05:24:37;7.97;;;4.82;;
78989;SDS011;68390;52.130;21.218;2023-08-12T05:27:03;9.05;;;4.80;;
78989;SDS011;68390;52.130;21.218;2023-08-12T05:29:29;9.77;;;5.72;;
78989;SDS011;68390;52.130;21.218;2023-08-12T05:31:55;10.13;;;5.78;;
78989;SDS011;68390;52.130;21.218;2023-08-12T05:34:21;9.10;;;4.68;;
78989;SDS011;68390;52.130;21.218;2023-08-12T05:36:46;7.00;;;4.80;;
78989;SDS011;68390;52.130;21.218;2023-08-12T05:39:12;7.28;;;4.30;;
78989;SDS011;68390;52.130;21.218;2023-08-12T05:41:39;13.07;;;5.95;;
78989;SDS011;68390;52.130;21.218;2023-08-12T05:44:05;8.73;;;4.68;;
78989;SDS011;68390;52.130;21.218;2023-08-12T05:46:30;8.25;;;4.25;;
78989;SDS011;68390;52.130;21.218;2023-08-12T05:48:56;7.53;;;4.68;;
78989;SDS011;68390;52.130;21.218;2023-08-12T05:51:21;9.35;;;5.57;;
78989;SDS011;68390;52.130;21.218;2023-08-12T05:53:48;6.75;;;4.20;;
78989;SDS011;68390;52.130;21.218;2023-08-12T05:56:13;6.00;;;3.75;;
78989;SDS011;68390;52.130;21.218;2023-08-12T05:58:39;7.03;;;4.60;;
78989;SDS011;68390;52.130;21.218;2023-08-12T06:01:04;8.20;;;5.20;;
78989;SDS011;68390;52.130;21.218;2023-08-12T06:03:29;7.10;;;4.57;;
78989;SDS011;68390;52.130;21.218;2023-08-12T06:05:55;7.78;;;4.93;;
78989;SDS011;68390;52.130;21.218;2023-08-12T06:08:20;7.80;;;4.57;;
78989;SDS011;68390;52.130;21.218;2023-08-12T06:10:46;8.25;;;4.13;;
78989;SDS011;68390;52.130;21.218;2023-08-12T06:13:11;7.40;;;4.75;;
78989;SDS011;68390;52.130;21.218;2023-08-12T06:15:36;7.53;;;4.32;;
78989;SDS011;68390;52.130;21.218;2023-08-12T06:18:02;7.72;;;4.90;;
78989;SDS011;68390;52.130;21.218;2023-08-12T06:20:27;8.82;;;4.75;;
78989;SDS011;68390;52.130;21.218;2023-08-12T06:22:53;9.20;;;4.75;;
78989;SDS011;68390;52.130;21.218;2023-08-12T06:25:19;7.00;;;4.10;;
78989;SDS011;68390;52.130;21.218;2023-08-12T06:27:45;8.43;;;4.25;;
78989;SDS011;68390;52.130;21.218;2023-08-12T06:30:11;7.35;;;4.03;;
78989;SDS011;68390;52.130;21.218;2023-08-12T06:32:37;9.15;;;4.90;;
78989;SDS011;68390;52.130;21.218;2023-08-12T06:35:03;7.93;;;4.30;;
78989;SDS011;68390;52.130;21.218;2023-08-12T06:37:29;9.35;;;4.20;;
78989;SDS011;68390;52.130;21.218;2023-08-12T06:39:54;5.25;;;3.90;;
78989;SDS011;68390;52.130;21.218;2023-08-12T06:42:20;5.18;;;3.58;;
78989;SDS011;68390;52.130;21.218;2023-08-12T06:44:54;5.65;;;3.83;;
78989;SDS011;68390;52.130;21.218;2023-08-12T06:47:20;8.05;;;3.80;;
78989;SDS011;68390;52.130;21.218;2023-08-12T06:49:46;5.68;;;3.78;;
78989;SDS011;68390;52.130;21.218;2023-08-12T06:52:11;7.35;;;3.88;;
78989;SDS011;68390;52.130;21.218;2023-08-12T06:54:37;5.80;;;3.88;;
78989;SDS011;68390;52.130;21.218;2023-08-12T06:57:02;5.55;;;3.58;;
78989;SDS011;68390;52.130;21.218;2023-08-12T06:59:28;6.00;;;4.25;;
78989;SDS011;68390;52.130;21.218;2023-08-12T07:01:53;7.25;;;4.05;;
78989;SDS011;68390;52.130;21.218;2023-08-12T07:04:19;6.90;;;3.65;;
78989;SDS011;68390;52.130;21.218;2023-08-12T07:06:44;5.97;;;2.63;;
78989;SDS011;68390;52.130;21.218;2023-08-12T07:09:09;4.65;;;2.50;;
78989;SDS011;68390;52.130;21.218;2023-08-12T07:11:35;4.53;;;2.70;;
78989;SDS011;68390;52.130;21.218;2023-08-12T07:14:00;5.47;;;2.58;;
78989;SDS011;68390;52.130;21.218;2023-08-12T07:16:26;6.15;;;2.80;;
78989;SDS011;68390;52.130;21.218;2023-08-12T07:18:51;6.20;;;2.63;;
78989;SDS011;68390;52.130;21.218;2023-08-12T07:21:17;4.88;;;2.53;;
78989;SDS011;68390;52.130;21.218;2023-08-12T07:23:42;5.05;;;2.30;;
78989;SDS011;68390;52.130;21.218;2023-08-12T07:26:07;5.80;;;2.97;;
78989;SDS011;68390;52.130;21.218;2023-08-12T07:28:33;5.15;;;2.60;;
78989;SDS011;68390;52.130;21.218;2023-08-12T07:31:00;5.63;;;2.70;;
78989;SDS011;68390;52.130;21.218;2023-08-12T07:33:28;5.85;;;2.20;;
78989;SDS011;68390;52.130;21.218;2023-08-12T07:35:53;5.13;;;2.50;;
78989;SDS011;68390;52.130;21.218;2023-08-12T07:38:19;3.20;;;2.22;;
78989;SDS011;68390;52.130;21.218;2023-08-12T07:40:44;5.65;;;3.30;;
78989;SDS011;68390;52.130;21.218;2023-08-12T07:43:10;3.75;;;2.33;;
78989;SDS011;68390;52.130;21.218;2023-08-12T07:45:35;3.92;;;2.03;;
78989;SDS011;68390;52.130;21.218;2023-08-12T07:48:00;4.47;;;2.03;;
78989;SDS011;68390;52.130;21.218;2023-08-12T07:50:26;9.15;;;2.60;;
78989;SDS011;68390;52.130;21.218;2023-08-12T07:52:51;4.07;;;2.05;;
78989;SDS011;68390;52.130;21.218;2023-08-12T07:55:17;5.50;;;2.55;;
78989;SDS011;68390;52.130;21.218;2023-08-12T07:57:44;7.13;;;2.72;;
78989;SDS011;68390;52.130;21.218;2023-08-12T08:00:11;4.35;;;3.22;;
78989;SDS011;68390;52.130;21.218;2023-08-12T08:02:37;4.80;;;2.40;;
78989;SDS011;68390;52.130;21.218;2023-08-12T08:05:03;4.88;;;2.10;;
78989;SDS011;68390;52.130;21.218;2023-08-12T08:07:29;4.00;;;2.33;;
78989;SDS011;68390;52.130;21.218;2023-08-12T08:09:55;3.78;;;2.08;;
78989;SDS011;68390;52.130;21.218;2023-08-12T08:12:20;5.00;;;2.45;;
78989;SDS011;68390;52.130;21.218;2023-08-12T08:14:45;4.57;;;2.08;;
78989;SDS011;68390;52.130;21.218;2023-08-12T08:17:11;4.80;;;2.05;;
78989;SDS011;68390;52.130;21.218;2023-08-12T08:19:36;4.38;;;1.90;;
78989;SDS011;68390;52.130;21.218;2023-08-12T08:22:02;5.47;;;2.00;;
78989;SDS011;68390;52.130;21.218;2023-08-12T08:24:28;4.20;;;2.00;;
78989;SDS011;68390;52.130;21.218;2023-08-12T08:26:54;4.75;;;2.10;;
78989;SDS011;68390;52.130;21.218;2023-08-12T08:29:19;5.72;;;2.10;;
78989;SDS011;68390;52.130;21.218;2023-08-12T08:31:45;4.05;;;2.00;;
78989;SDS011;68390;52.130;21.218;2023-08-12T08:34:10;4.35;;;2.17;;
78989;SDS011;68390;52.130;21.218;2023-08-12T08:36:35;5.18;;;2.15;;
78989;SDS011;68390;52.130;21.218;2023-08-12T08:39:01;4.38;;;2.08;;
78989;SDS011;68390;52.130;21.218;2023-08-12T08:41:27;4.05;;;1.98;;
78989;SDS011;68390;52.130;21.218;2023-08-12T08:43:55;4.18;;;1.92;;
78989;SDS011;68390;52.130;21.218;2023-08-12T08:46:27;3.95;;;1.95;;
78989;SDS011;68390;52.130;21.218;2023-08-12T08:48:53;6.18;;;2.50;;
78989;SDS011;68390;52.130;21.218;2023-08-12T08:51:20;5.10;;;2.30;;
78989;SDS011;68390;52.130;21.218;2023-08-12T08:53:45;7.05;;;2.55;;
78989;SDS011;68390;52.130;21.218;2023-08-12T08:56:12;6.68;;;2.47;;
78989;SDS011;68390;52.130;21.218;2023-08-12T08:58:38;5.85;;;2.38;;
78989;SDS011;68390;52.130;21.218;2023-08-12T09:01:05;4.53;;;2.25;;
78989;SDS011;68390;52.130;21.218;2023-08-12T09:03:33;4.75;;;2.10;;
78989;SDS011;68390;52.130;21.218;2023-08-12T09:06:01;6.00;;;2.30;;
78989;SDS011;68390;52.130;21.218;2023-08-12T09:08:28;5.60;;;2.55;;
78989;SDS011;68390;52.130;21.218;2023-08-12T09:10:56;6.63;;;2.50;;
78989;SDS011;68390;52.130;21.218;2023-08-12T09:13:24;4.50;;;2.13;;
78989;SDS011;68390;52.130;21.218;2023-08-12T09:15:50;5.13;;;2.28;;
78989;SDS011;68390;52.130;21.218;2023-08-12T09:18:16;5.38;;;2.10;;
78989;SDS011;68390;52.130;21.218;2023-08-12T09:20:42;4.22;;;2.20;;
78989;SDS011;68390;52.130;21.218;2023-08-12T09:23:08;6.45;;;2.25;;
78989;SDS011;68390;52.130;21.218;2023-08-12T09:25:41;5.28;;;2.17;;
78989;SDS011;68390;52.130;21.218;2023-08-12T09:28:08;5.95;;;2.20;;
78989;SDS011;68390;52.130;21.218;2023-08-12T09:30:35;7.78;;;2.53;;
78989;SDS011;68390;52.130;21.218;2023-08-12T09:33:01;6.45;;;2.75;;
78989;SDS011;68390;52.130;21.218;2023-08-12T09:35:33;5.50;;;2.20;;
78989;SDS011;68390;52.130;21.218;2023-08-12T09:38:03;5.35;;;2.70;;
78989;SDS011;68390;52.130;21.218;2023-08-12T09:40:30;6.30;;;2.47;;
78989;SDS011;68390;52.130;21.218;2023-08-12T09:43:00;4.13;;;2.33;;
78989;SDS011;68390;52.130;21.218;2023-08-12T09:45:26;4.15;;;2.17;;
78989;SDS011;68390;52.130;21.218;2023-08-12T09:47:52;5.07;;;2.30;;
78989;SDS011;68390;52.130;21.218;2023-08-12T09:50:20;6.43;;;2.55;;
78989;SDS011;68390;52.130;21.218;2023-08-12T09:52:47;6.28;;;2.25;;
78989;SDS011;68390;52.130;21.218;2023-08-12T09:55:13;7.10;;;2.40;;
78989;SDS011;68390;52.130;21.218;2023-08-12T09:57:42;5.53;;;2.28;;
78989;SDS011;68390;52.130;21.218;2023-08-12T10:00:12;4.95;;;2.38;;
78989;SDS011;68390;52.130;21.218;2023-08-12T10:02:42;7.63;;;2.47;;
78989;SDS011;68390;52.130;21.218;2023-08-12T10:05:08;3.63;;;2.10;;
78989;SDS011;68390;52.130;21.218;2023-08-12T10:07:36;4.25;;;2.40;;
78989;SDS011;68390;52.130;21.218;2023-08-12T10:10:02;3.83;;;2.25;;
78989;SDS011;68390;52.130;21.218;2023-08-12T10:12:30;3.83;;;1.95;;
78989;SDS011;68390;52.130;21.218;2023-08-12T10:14:56;3.22;;;1.95;;
78989;SDS011;68390;52.130;21.218;2023-08-12T10:17:23;5.47;;;2.20;;
78989;SDS011;68390;52.130;21.218;2023-08-12T10:19:53;3.60;;;2.08;;
78989;SDS011;68390;52.130;21.218;2023-08-12T10:22:21;5.68;;;2.20;;
78989;SDS011;68390;52.130;21.218;2023-08-12T10:24:46;3.67;;;2.00;;
78989;SDS011;68390;52.130;21.218;2023-08-12T10:27:13;4.70;;;2.40;;
78989;SDS011;68390;52.130;21.218;2023-08-12T10:29:41;6.65;;;2.38;;
78989;SDS011;68390;52.130;21.218;2023-08-12T10:32:08;3.00;;;2.05;;
78989;SDS011;68390;52.130;21.218;2023-08-12T10:34:33;4.95;;;1.98;;
78989;SDS011;68390;52.130;21.218;2023-08-12T10:37:01;6.50;;;2.20;;
78989;SDS011;68390;52.130;21.218;2023-08-12T10:39:28;8.15;;;2.33;;
78989;SDS011;68390;52.130;21.218;2023-08-12T10:41:54;3.92;;;2.00;;
78989;SDS011;68390;52.130;21.218;2023-08-12T10:44:20;6.68;;;2.70;;
78989;SDS011;68390;52.130;21.218;2023-08-12T10:46:51;4.03;;;2.03;;
78989;SDS011;68390;52.130;21.218;2023-08-12T10:49:18;5.75;;;2.10;;
78989;SDS011;68390;52.130;21.218;2023-08-12T10:51:49;3.50;;;2.00;;
78989;SDS011;68390;52.130;21.218;2023-08-12T11:07:29;6.07;;;2.33;;
78989;SDS011;68390;52.130;21.218;2023-08-12T11:10:10;7.10;;;2.40;;
78989;SDS011;68390;52.130;21.218;2023-08-12T11:15:17;4.47;;;2.00;;
78989;SDS011;68390;52.130;21.218;2023-08-12T11:17:55;4.78;;;1.98;;
78989;SDS011;68390;52.130;21.218;2023-08-12T11:20:21;4.78;;;2.20;;
78989;SDS011;68390;52.130;21.218;2023-08-12T11:22:46;4.65;;;2.20;;
78989;SDS011;68390;52.130;21.218;2023-08-12T11:25:12;4.90;;;2.00;;
78989;SDS011;68390;52.130;21.218;2023-08-12T11:27:48;3.28;;;1.88;;
78989;SDS011;68390;52.130;21.218;2023-08-12T11:30:14;4.53;;;1.92;;
78989;SDS011;68390;52.130;21.218;2023-08-12T11:32:41;3.20;;;2.05;;
78989;SDS011;68390;52.130;21.218;2023-08-12T11:35:08;9.05;;;2.78;;
78989;SDS011;68390;52.130;21.218;2023-08-12T11:37:39;9.90;;;3.53;;
78989;SDS011;68390;52.130;21.218;2023-08-12T11:40:06;4.10;;;1.83;;
78989;SDS011;68390;52.130;21.218;2023-08-12T11:42:36;6.97;;;2.45;;
78989;SDS011;68390;52.130;21.218;2023-08-12T11:45:05;4.35;;;2.35;;
78989;SDS011;68390;52.130;21.218;2023-08-12T11:47:34;4.15;;;2.28;;
78989;SDS011;68390;52.130;21.218;2023-08-12T11:50:08;6.65;;;2.78;;
78989;SDS011;68390;52.130;21.218;2023-08-12T11:52:38;3.80;;;2.15;;
78989;SDS011;68390;52.130;21.218;2023-08-12T11:55:05;27.38;;;8.27;;
78989;SDS011;68390;52.130;21.218;2023-08-12T11:57:34;11.27;;;3.50;;
78989;SDS011;68390;52.130;21.218;2023-08-12T12:00:12;85.68;;;19.75;;
78989;SDS011;68390;52.130;21.218;2023-08-12T12:02:49;13.88;;;3.95;;
78989;SDS011;68390;52.130;21.218;2023-08-12T12:05:17;5.75;;;2.65;;
78989;SDS011;68390;52.130;21.218;2023-08-12T12:07:43;4.40;;;2.00;;
78989;SDS011;68390;52.130;21.218;2023-08-12T12:10:17;6.63;;;2.00;;
78989;SDS011;68390;52.130;21.218;2023-08-12T12:12:44;4.80;;;2.00;;
78989;SDS011;68390;52.130;21.218;2023-08-12T12:15:12;3.00;;;1.90;;
78989;SDS011;68390;52.130;21.218;2023-08-12T12:17:39;4.82;;;2.00;;
78989;SDS011;68390;52.130;21.218;2023-08-12T12:20:06;4.13;;;2.00;;
78989;SDS011;68390;52.130;21.218;2023-08-12T12:43:13;5.43;;;2.10;;
78989;SDS011;68390;52.130;21.218;2023-08-12T12:45:41;4.68;;;2.00;;
78989;SDS011;68390;52.130;21.218;2023-08-12T12:48:07;5.60;;;2.35;;
78989;SDS011;68390;52.130;21.218;2023-08-12T12:50:32;8.43;;;2.88;;
78989;SDS011;68390;52.130;21.218;2023-08-12T12:53:01;5.63;;;2.30;;
78989;SDS011;68390;52.130;21.218;2023-08-12T12:55:27;4.78;;;2.40;;
78989;SDS011;68390;52.130;21.218;2023-08-12T12:57:52;4.18;;;1.70;;
78989;SDS011;68390;52.130;21.218;2023-08-12T13:00:18;3.22;;;1.92;;
78989;SDS011;68390;52.130;21.218;2023-08-12T13:02:43;4.78;;;2.40;;
78989;SDS011;68390;52.130;21.218;2023-08-12T13:05:09;4.68;;;2.40;;
78989;SDS011;68390;52.130;21.218;2023-08-12T13:07:34;4.28;;;2.10;;
78989;SDS011;68390;52.130;21.218;2023-08-12T13:10:00;5.25;;;2.30;;
78989;SDS011;68390;52.130;21.218;2023-08-12T13:12:25;5.53;;;2.42;;
78989;SDS011;68390;52.130;21.218;2023-08-12T13:14:50;6.90;;;2.50;;
78989;SDS011;68390;52.130;21.218;2023-08-12T13:17:16;5.10;;;2.15;;
78989;SDS011;68390;52.130;21.218;2023-08-12T13:19:41;5.00;;;2.15;;
78989;SDS011;68390;52.130;21.218;2023-08-12T13:22:06;5.50;;;2.20;;
78989;SDS011;68390;52.130;21.218;2023-08-12T13:24:32;4.30;;;2.50;;
78989;SDS011;68390;52.130;21.218;2023-08-12T13:26:57;4.18;;;2.38;;
78989;SDS011;68390;52.130;21.218;2023-08-12T13:29:23;3.78;;;2.17;;
78989;SDS011;68390;52.130;21.218;2023-08-12T13:31:48;6.47;;;2.45;;
78989;SDS011;68390;52.130;21.218;2023-08-12T13:34:14;6.40;;;2.13;;
78989;SDS011;68390;52.130;21.218;2023-08-12T13:36:39;3.65;;;2.20;;
78989;SDS011;68390;52.130;21.218;2023-08-12T13:39:05;5.80;;;2.40;;
78989;SDS011;68390;52.130;21.218;2023-08-12T13:41:30;5.13;;;2.20;;
78989;SDS011;68390;52.130;21.218;2023-08-12T13:43:56;45.38;;;11.40;;
78989;SDS011;68390;52.130;21.218;2023-08-12T13:46:21;13.50;;;4.25;;
78989;SDS011;68390;52.130;21.218;2023-08-12T13:48:46;23.85;;;6.30;;
78989;SDS011;68390;52.130;21.218;2023-08-12T13:51:12;5.53;;;2.53;;
78989;SDS011;68390;52.130;21.218;2023-08-12T13:53:37;6.35;;;2.53;;
78989;SDS011;68390;52.130;21.218;2023-08-12T13:56:03;4.07;;;2.13;;
78989;SDS011;68390;52.130;21.218;2023-08-12T13:58:29;21.27;;;5.20;;
78989;SDS011;68390;52.130;21.218;2023-08-12T14:00:54;8.95;;;2.97;;
78989;SDS011;68390;52.130;21.218;2023-08-12T14:03:19;8.85;;;3.35;;
78989;SDS011;68390;52.130;21.218;2023-08-12T14:05:45;5.35;;;2.33;;
78989;SDS011;68390;52.130;21.218;2023-08-12T14:08:10;6.85;;;2.45;;
78989;SDS011;68390;52.130;21.218;2023-08-12T14:10:36;12.63;;;2.75;;
78989;SDS011;68390;52.130;21.218;2023-08-12T14:13:01;3.65;;;2.10;;
78989;SDS011;68390;52.130;21.218;2023-08-12T14:15:27;3.92;;;2.10;;
78989;SDS011;68390;52.130;21.218;2023-08-12T14:17:52;4.50;;;2.05;;
78989;SDS011;68390;52.130;21.218;2023-08-12T14:20:17;5.40;;;1.98;;
78989;SDS011;68390;52.130;21.218;2023-08-12T14:22:43;5.82;;;2.40;;
78989;SDS011;68390;52.130;21.218;2023-08-12T14:25:09;7.05;;;2.35;;
78989;SDS011;68390;52.130;21.218;2023-08-12T14:27:35;4.90;;;2.20;;
78989;SDS011;68390;52.130;21.218;2023-08-12T14:30:01;4.43;;;2.30;;
78989;SDS011;68390;52.130;21.218;2023-08-12T14:32:27;2.85;;;1.98;;
78989;SDS011;68390;52.130;21.218;2023-08-12T14:34:52;4.82;;;2.40;;
78989;SDS011;68390;52.130;21.218;2023-08-12T14:37:18;5.32;;;2.10;;
78989;SDS011;68390;52.130;21.218;2023-08-12T14:39:43;4.30;;;2.25;;
78989;SDS011;68390;52.130;21.218;2023-08-12T14:42:08;3.47;;;2.10;;
78989;SDS011;68390;52.130;21.218;2023-08-12T14:44:35;4.22;;;2.15;;
78989;SDS011;68390;52.130;21.218;2023-08-12T14:47:01;7.20;;;2.47;;
78989;SDS011;68390;52.130;21.218;2023-08-12T14:49:27;6.72;;;2.35;;
78989;SDS011;68390;52.130;21.218;2023-08-12T14:51:54;6.03;;;2.58;;
78989;SDS011;68390;52.130;21.218;2023-08-12T14:54:21;5.10;;;2.08;;
78989;SDS011;68390;52.130;21.218;2023-08-12T14:56:46;4.22;;;2.30;;
78989;SDS011;68390;52.130;21.218;2023-08-12T14:59:12;3.70;;;1.90;;
78989;SDS011;68390;52.130;21.218;2023-08-12T15:01:37;5.65;;;2.08;;
78989;SDS011;68390;52.130;21.218;2023-08-12T15:04:03;4.85;;;2.35;;